createdAt,value
2018-10-03T00:01:13.782Z,14.57
2018-10-03T00:03:42.222Z,14.55
2018-10-03T00:06:10.722Z,14.55
2018-10-03T00:08:39.376Z,14.52
2018-10-03T00:11:07.987Z,14.49
2018-10-03T00:13:36.396Z,14.46
2018-10-03T00:16:04.919Z,14.42
2018-10-03T00:18:33.375Z,14.38
2018-10-03T00:21:01.902Z,14.33
2018-10-03T00:23:30.388Z,14.27
2018-10-03T00:25:59.798Z,14.20
2018-10-03T00:28:28.237Z,14.10
2018-10-03T00:30:56.710Z,14.03
2018-10-03T00:33:25.787Z,13.95
2018-10-03T00:35:54.248Z,13.87
2018-10-03T00:38:22.703Z,13.81
2018-10-03T00:40:51.546Z,13.76
2018-10-03T00:43:19.968Z,13.72
2018-10-03T00:45:48.530Z,13.68
2018-10-03T00:48:17.497Z,13.63
2018-10-03T00:50:45.969Z,13.58
2018-10-03T00:53:14.391Z,13.50
2018-10-03T00:55:42.912Z,13.43
2018-10-03T00:58:11.387Z,13.40
2018-10-03T01:00:39.844Z,13.37
2018-10-03T01:03:08.346Z,13.36
2018-10-03T01:05:36.846Z,13.36
2018-10-03T01:08:05.304Z,13.37
2018-10-03T01:10:33.785Z,13.37
2018-10-03T01:13:02.298Z,13.36
2018-10-03T01:15:30.815Z,13.36
2018-10-03T01:17:59.348Z,13.35
2018-10-03T01:20:27.822Z,13.35
2018-10-03T01:22:56.982Z,13.35
2018-10-03T01:25:25.658Z,13.34
2018-10-03T01:27:54.182Z,13.37
2018-10-03T01:30:22.678Z,13.40
2018-10-03T01:32:51.165Z,13.41
2018-10-03T01:35:19.683Z,13.44
2018-10-03T01:37:48.583Z,13.43
2018-10-03T01:40:17.077Z,13.43
2018-10-03T01:42:45.554Z,13.40
2018-10-03T01:45:14.436Z,13.35
2018-10-03T01:47:42.972Z,13.33
2018-10-03T01:50:11.511Z,13.31
2018-10-03T01:52:40.271Z,13.32
2018-10-03T01:55:08.817Z,13.33
2018-10-03T01:57:37.281Z,13.34
2018-10-03T02:00:06.081Z,13.34
2018-10-03T02:02:34.574Z,13.34
2018-10-03T02:05:03.122Z,13.34
2018-10-03T02:07:31.703Z,13.33
2018-10-03T02:10:00.314Z,13.29
2018-10-03T02:12:28.823Z,13.26
2018-10-03T02:14:57.292Z,13.25
2018-10-03T02:17:25.785Z,13.24
2018-10-03T02:19:54.223Z,13.25
2018-10-03T02:22:23.013Z,13.21
2018-10-03T02:24:51.550Z,13.13
2018-10-03T02:27:20.105Z,13.07
2018-10-03T02:29:48.642Z,12.99
2018-10-03T02:32:17.155Z,12.94
2018-10-03T02:34:45.645Z,12.91
2018-10-03T02:37:14.088Z,12.89
2018-10-03T02:39:42.587Z,12.88
2018-10-03T02:42:11.024Z,12.87
2018-10-03T02:44:39.454Z,12.84
2018-10-03T02:47:07.932Z,12.84
2018-10-03T02:49:36.460Z,12.84
2018-10-03T02:52:05.042Z,12.83
2018-10-03T02:54:33.510Z,12.83
2018-10-03T02:57:02.019Z,12.85
2018-10-03T02:59:30.522Z,12.89
2018-10-03T03:01:59.088Z,12.93
2018-10-03T03:04:28.023Z,12.95
2018-10-03T03:06:56.483Z,12.96
2018-10-03T03:09:24.949Z,12.95
2018-10-03T03:11:53.693Z,12.96
2018-10-03T03:14:22.187Z,12.94
2018-10-03T03:16:50.622Z,12.94
2018-10-03T03:19:19.548Z,12.94
2018-10-03T03:21:48.031Z,12.93
2018-10-03T03:24:16.514Z,12.92
2018-10-03T03:26:45.005Z,12.88
2018-10-03T03:29:13.542Z,12.83
2018-10-03T03:31:42.050Z,12.78
2018-10-03T03:34:10.553Z,12.74
2018-10-03T03:36:39.019Z,12.68
2018-10-03T03:39:08.428Z,12.62
2018-10-03T03:41:37.035Z,12.58
2018-10-03T03:44:05.559Z,12.54
2018-10-03T03:46:34.046Z,12.50
2018-10-03T03:49:02.522Z,12.47
2018-10-03T03:51:32.035Z,12.48
2018-10-03T03:54:00.570Z,12.49
2018-10-03T03:56:29.034Z,12.52
2018-10-03T03:58:57.855Z,12.53
2018-10-03T04:01:26.297Z,12.55
2018-10-03T04:03:55.023Z,12.57
2018-10-03T04:06:23.520Z,12.61
2018-10-03T04:08:52.061Z,12.63
2018-10-03T04:11:20.569Z,12.66
2018-10-03T04:13:49.104Z,12.67
2018-10-03T04:16:17.906Z,12.68
2018-10-03T04:18:46.410Z,12.70
2018-10-03T04:21:14.873Z,12.70
2018-10-03T04:23:43.673Z,12.69
2018-10-03T04:26:12.815Z,12.69
2018-10-03T04:28:41.282Z,12.69
2018-10-03T04:31:10.259Z,12.69
2018-10-03T04:33:38.890Z,12.69
2018-10-03T04:36:07.595Z,12.67
2018-10-03T04:38:36.285Z,12.63
2018-10-03T04:41:05.748Z,12.58
2018-10-03T04:43:34.264Z,12.53
2018-10-03T04:46:02.805Z,12.49
2018-10-03T04:48:36.089Z,12.47
2018-10-03T04:51:05.298Z,12.45
2018-10-03T04:53:33.869Z,12.44
2018-10-03T04:56:02.391Z,12.44
2018-10-03T04:58:30.959Z,12.43
2018-10-03T05:00:59.568Z,12.43
2018-10-03T05:03:28.186Z,12.39
2018-10-03T05:05:57.012Z,12.37
2018-10-03T05:08:25.730Z,12.33
2018-10-03T05:10:54.390Z,12.30
2018-10-03T05:13:23.055Z,12.25
2018-10-03T05:15:51.626Z,12.20
2018-10-03T05:18:20.545Z,12.17
2018-10-03T05:20:49.181Z,12.12
2018-10-03T05:23:17.858Z,12.08
2018-10-03T05:25:46.628Z,12.03
2018-10-03T05:28:15.538Z,11.99
2018-10-03T05:30:44.154Z,11.98
2018-10-03T05:33:12.942Z,11.97
2018-10-03T05:35:41.525Z,11.95
2018-10-03T05:38:10.281Z,11.95
2018-10-03T05:40:39.305Z,11.92
2018-10-03T05:43:07.977Z,11.91
2018-10-03T05:45:36.599Z,11.90
2018-10-03T05:48:05.239Z,11.90
2018-10-03T05:50:33.820Z,11.91
2018-10-03T05:53:02.462Z,11.95
2018-10-03T05:55:31.014Z,11.96
2018-10-03T05:57:59.591Z,11.96
2018-10-03T06:00:28.370Z,11.98
2018-10-03T06:02:58.236Z,11.97
2018-10-03T06:05:27.281Z,11.99
2018-10-03T06:07:55.793Z,12.00
2018-10-03T06:10:24.428Z,11.99
2018-10-03T06:12:53.328Z,12.01
2018-10-03T06:15:22.681Z,12.00
2018-10-03T06:17:51.941Z,11.98
2018-10-03T06:20:22.702Z,11.95
2018-10-03T06:22:51.288Z,11.92
2018-10-03T06:25:22.014Z,11.93
2018-10-03T06:27:50.709Z,11.94
2018-10-03T06:30:19.259Z,11.98
2018-10-03T06:32:47.919Z,12.05
2018-10-03T06:35:17.343Z,12.11
2018-10-03T06:37:46.695Z,12.17
2018-10-03T06:40:15.701Z,12.23
2018-10-03T06:42:44.856Z,12.31
2018-10-03T06:45:13.756Z,12.35
2018-10-03T06:47:42.542Z,12.43
2018-10-03T06:50:11.730Z,12.48
2018-10-03T06:52:41.242Z,12.54
2018-10-03T06:55:10.112Z,12.61
2018-10-03T06:57:38.753Z,12.71
2018-10-03T07:00:07.462Z,12.81
2018-10-03T07:02:36.202Z,12.93
2018-10-03T07:05:05.569Z,13.09
2018-10-03T07:07:34.326Z,13.21
2018-10-03T07:10:03.442Z,13.35
2018-10-03T07:12:32.162Z,13.46
2018-10-03T07:15:00.908Z,13.55
2018-10-03T07:17:29.643Z,13.68
2018-10-03T07:19:59.104Z,13.77
2018-10-03T07:22:27.723Z,13.88
2018-10-03T07:24:56.977Z,13.98
2018-10-03T07:27:25.861Z,14.06
2018-10-03T07:29:54.843Z,14.14
2018-10-03T07:32:24.024Z,14.21
2018-10-03T07:34:52.627Z,14.27
2018-10-03T07:37:23.456Z,14.35
2018-10-03T07:39:52.218Z,14.45
2018-10-03T07:45:07.913Z,14.62
2018-10-03T07:47:37.598Z,14.68
2018-10-03T07:50:07.374Z,14.78
2018-10-03T07:52:36.958Z,14.86
2018-10-03T07:55:07.220Z,14.93
2018-10-03T07:57:35.907Z,14.98
2018-10-03T08:00:05.398Z,14.99
2018-10-03T08:02:34.368Z,15.14
2018-10-03T08:05:02.990Z,15.29
